createdAt,value
2017-07-14T00:00:23.040Z,15.30
2017-07-14T00:02:50.672Z,15.40
2017-07-14T00:05:18.988Z,15.50
2017-07-14T00:07:46.521Z,15.50
2017-07-14T00:10:14.092Z,15.70
2017-07-14T00:12:41.623Z,15.80
2017-07-14T00:15:10.024Z,16.00
2017-07-14T00:17:37.601Z,15.90
2017-07-14T00:20:05.124Z,16.00
2017-07-14T00:22:32.684Z,16.10
2017-07-14T00:25:00.235Z,16.20
2017-07-14T00:27:27.767Z,16.30
2017-07-14T00:29:55.342Z,16.40
2017-07-14T00:32:23.644Z,16.40
2017-07-14T00:34:51.175Z,16.40
2017-07-14T00:37:19.499Z,16.40
2017-07-14T00:39:47.029Z,16.40
2017-07-14T00:42:14.705Z,16.40
2017-07-14T00:44:42.240Z,16.40
2017-07-14T00:47:10.551Z,16.60
2017-07-14T00:49:38.126Z,16.60
2017-07-14T00:52:05.836Z,16.60
2017-07-14T00:54:33.503Z,16.60
2017-07-14T00:57:01.037Z,16.50
2017-07-14T00:59:29.377Z,16.50
2017-07-14T01:01:57.121Z,16.50
2017-07-14T01:04:24.684Z,16.60
2017-07-14T01:06:52.224Z,16.70
2017-07-14T01:09:19.848Z,16.60
2017-07-14T01:11:48.144Z,16.60
2017-07-14T01:14:15.675Z,16.60
2017-07-14T01:16:43.228Z,16.60
2017-07-14T01:19:10.760Z,16.60
2017-07-14T01:21:38.331Z,16.50
2017-07-14T01:24:05.867Z,16.50
2017-07-14T01:26:33.424Z,16.50
2017-07-14T01:29:00.982Z,16.40
2017-07-14T01:31:28.514Z,16.30
2017-07-14T01:33:56.068Z,16.00
2017-07-14T01:36:23.588Z,15.80
2017-07-14T01:41:45.430Z,15.80
2017-07-14T01:44:13.119Z,15.80
2017-07-14T01:46:40.673Z,15.70
2017-07-14T01:49:08.222Z,15.70
2017-07-14T01:51:35.794Z,15.60
2017-07-14T01:54:03.335Z,15.50
2017-07-14T01:56:30.888Z,15.50
2017-07-14T01:58:58.550Z,15.50
2017-07-14T02:01:26.168Z,15.40
2017-07-14T02:03:54.672Z,15.40
2017-07-14T02:06:22.215Z,15.40
2017-07-14T02:08:49.863Z,15.30
2017-07-14T02:11:18.412Z,15.20
2017-07-14T02:13:45.968Z,15.20
2017-07-14T02:16:13.593Z,15.30
2017-07-14T02:18:41.151Z,15.30
2017-07-14T02:21:08.699Z,15.30
2017-07-14T02:23:36.332Z,15.30
2017-07-14T02:26:03.906Z,15.20
2017-07-14T02:28:31.448Z,15.10
2017-07-14T02:31:00.006Z,15.30
2017-07-14T02:33:27.561Z,15.30
2017-07-14T02:35:55.170Z,15.30
2017-07-14T02:38:22.774Z,15.30
2017-07-14T02:40:50.354Z,15.30
2017-07-14T02:43:17.939Z,15.40
2017-07-14T02:45:45.490Z,15.40
2017-07-14T02:48:14.038Z,15.40
2017-07-14T02:50:41.629Z,15.40
2017-07-14T02:53:10.033Z,15.40
2017-07-14T02:55:37.635Z,15.40
2017-07-14T02:58:05.174Z,15.40
2017-07-14T03:00:32.709Z,15.20
2017-07-14T03:03:00.310Z,15.30
2017-07-14T03:05:27.945Z,15.10
2017-07-14T03:07:55.506Z,15.10
2017-07-14T03:10:23.098Z,15.20
2017-07-14T03:12:50.639Z,15.20
2017-07-14T03:15:18.267Z,15.10
2017-07-14T03:17:45.965Z,15.00
2017-07-14T03:20:13.513Z,15.00
2017-07-14T03:22:41.057Z,15.10
2017-07-14T03:25:08.660Z,15.10
2017-07-14T03:27:36.978Z,15.00
2017-07-14T03:30:04.523Z,15.00
2017-07-14T03:32:32.097Z,15.10
2017-07-14T03:34:59.654Z,15.00
2017-07-14T03:37:27.259Z,14.90
2017-07-14T03:39:54.800Z,14.90
2017-07-14T03:42:22.418Z,15.10
2017-07-14T03:44:50.007Z,15.00
2017-07-14T03:47:17.598Z,14.90
2017-07-14T03:49:45.911Z,14.80
2017-07-14T03:52:13.476Z,14.80
2017-07-14T03:54:41.219Z,14.70
2017-07-14T03:57:08.809Z,14.70
2017-07-14T03:59:36.359Z,14.70
2017-07-14T04:02:03.920Z,14.70
2017-07-14T04:04:31.497Z,14.80
2017-07-14T04:06:59.047Z,14.90
2017-07-14T04:09:26.638Z,15.00
2017-07-14T04:11:54.189Z,15.00
2017-07-14T04:14:21.820Z,15.00
2017-07-14T04:16:49.513Z,15.00
2017-07-14T04:19:17.058Z,15.10
2017-07-14T04:21:44.676Z,15.20
2017-07-14T04:24:12.317Z,15.30
2017-07-14T04:26:39.924Z,15.30
2017-07-14T04:29:07.549Z,15.40
2017-07-14T04:31:35.098Z,15.40
2017-07-14T04:34:02.679Z,15.40
2017-07-14T04:36:30.237Z,15.40
2017-07-14T04:38:57.814Z,15.40
2017-07-14T04:41:25.358Z,15.30
2017-07-14T04:43:52.937Z,15.30
2017-07-14T04:46:20.492Z,15.30
2017-07-14T04:48:48.064Z,15.30
2017-07-14T04:51:15.645Z,15.50
2017-07-14T04:53:43.972Z,15.60
2017-07-14T04:56:11.518Z,15.60
2017-07-14T04:58:39.103Z,15.70
2017-07-14T05:01:06.696Z,15.80
2017-07-14T05:03:35.010Z,16.20
2017-07-14T05:06:02.560Z,16.20
2017-07-14T05:08:30.126Z,16.50
2017-07-14T05:10:57.738Z,16.70
2017-07-14T05:13:25.320Z,16.80
2017-07-14T05:15:53.788Z,16.70
2017-07-14T05:18:22.204Z,16.50
2017-07-14T05:20:49.791Z,16.50
2017-07-14T05:23:17.407Z,16.60
2017-07-14T05:25:44.949Z,16.70
2017-07-14T05:28:12.581Z,16.80
2017-07-14T05:30:40.269Z,16.60
2017-07-14T05:33:08.623Z,16.70
2017-07-14T05:35:36.175Z,16.70
2017-07-14T05:38:03.726Z,16.70
2017-07-14T05:40:31.284Z,16.70
2017-07-14T05:42:58.882Z,16.90
2017-07-14T05:45:27.187Z,17.10
2017-07-14T05:47:54.777Z,17.10
2017-07-14T05:50:22.327Z,17.10
2017-07-14T05:52:49.879Z,17.30
2017-07-14T05:55:17.455Z,17.40
2017-07-14T05:57:45.118Z,17.50
2017-07-14T06:00:12.711Z,17.70
2017-07-14T06:02:40.252Z,17.70
2017-07-14T06:05:08.565Z,17.80
2017-07-14T06:07:36.158Z,17.80
2017-07-14T06:10:03.708Z,18.00
2017-07-14T06:12:31.274Z,18.00
2017-07-14T06:14:58.869Z,17.80
2017-07-14T06:17:27.188Z,17.60
2017-07-14T06:19:54.780Z,17.50
2017-07-14T06:22:22.329Z,17.90
2017-07-14T06:24:49.936Z,18.20
2017-07-14T06:27:17.482Z,18.40
2017-07-14T06:29:45.777Z,18.80
2017-07-14T06:32:13.378Z,18.80
2017-07-14T06:34:40.915Z,18.90
2017-07-14T06:37:08.464Z,18.90
2017-07-14T06:39:36.060Z,18.80
2017-07-14T06:42:03.653Z,18.90
2017-07-14T06:44:31.330Z,19.40
2017-07-14T06:46:58.916Z,18.90
2017-07-14T06:49:26.498Z,19.50
2017-07-14T06:51:54.044Z,20.80
2017-07-14T06:54:21.621Z,21.70
2017-07-14T06:56:49.261Z,22.30
2017-07-14T06:59:16.870Z,21.60
2017-07-14T07:01:44.444Z,21.70
2017-07-14T07:04:11.998Z,21.00
2017-07-14T07:06:39.578Z,20.30
2017-07-14T07:09:07.122Z,21.20
2017-07-14T07:11:34.723Z,21.20
2017-07-14T07:14:02.309Z,21.70
2017-07-14T07:16:30.631Z,25.20
2017-07-14T07:18:58.193Z,25.10
2017-07-14T07:21:25.758Z,26.90
2017-07-14T07:23:53.319Z,26.30
2017-07-14T07:26:20.952Z,27.10
2017-07-14T07:28:48.526Z,27.20
2017-07-14T07:31:16.074Z,26.50
2017-07-14T07:33:43.630Z,25.20
2017-07-14T07:36:11.313Z,24.40
2017-07-14T07:38:38.863Z,23.60
2017-07-14T07:41:06.449Z,23.20
2017-07-14T07:43:34.000Z,22.70
2017-07-14T07:46:01.542Z,22.50
2017-07-14T07:48:34.787Z,22.40
2017-07-14T07:51:02.364Z,21.50
2017-07-14T07:53:29.975Z,21.40
2017-07-14T07:55:57.696Z,21.30
2017-07-14T07:58:25.352Z,21.50
2017-07-14T08:00:52.922Z,20.90
2017-07-14T08:03:20.499Z,21.10
2017-07-14T08:05:48.059Z,21.30
2017-07-14T08:08:15.614Z,21.50
2017-07-14T08:10:43.199Z,21.10
2017-07-14T08:13:11.521Z,20.90
2017-07-14T08:15:39.209Z,20.90
2017-07-14T08:18:06.798Z,20.80
2017-07-14T08:20:35.111Z,21.00
2017-07-14T08:23:02.772Z,21.00
2017-07-14T08:25:30.315Z,21.10
2017-07-14T08:27:57.876Z,21.30
2017-07-14T08:30:25.461Z,20.90
2017-07-14T08:32:53.005Z,20.50
2017-07-14T08:35:20.570Z,20.30
2017-07-14T08:37:48.150Z,20.30
2017-07-14T08:40:15.826Z,20.20
2017-07-14T08:42:43.440Z,20.30
2017-07-14T08:45:11.010Z,20.40
2017-07-14T08:47:38.606Z,20.30
2017-07-14T08:50:06.169Z,20.20
2017-07-14T08:52:33.777Z,20.30
2017-07-14T08:55:01.359Z,20.20
2017-07-14T08:57:28.916Z,20.20
2017-07-14T08:59:56.512Z,20.30
2017-07-14T09:02:24.866Z,20.50
2017-07-14T09:04:52.443Z,20.50
2017-07-14T09:07:20.760Z,20.90
2017-07-14T09:09:48.364Z,20.90
2017-07-14T09:12:15.925Z,21.20
2017-07-14T09:14:43.472Z,21.50
2017-07-14T09:17:11.055Z,21.30
2017-07-14T09:19:39.373Z,21.70
2017-07-14T09:22:07.015Z,21.70
2017-07-14T09:24:34.557Z,22.00
2017-07-14T09:27:02.119Z,21.70
2017-07-14T09:29:29.693Z,21.50
2017-07-14T09:31:57.270Z,21.20
2017-07-14T09:34:25.594Z,21.10
2017-07-14T09:36:53.902Z,20.80
2017-07-14T09:39:21.489Z,20.80
2017-07-14T09:41:49.054Z,21.10
2017-07-14T09:44:16.603Z,21.00
2017-07-14T09:46:44.243Z,20.90
2017-07-14T09:49:11.803Z,20.90
2017-07-14T09:51:39.428Z,20.70
2017-07-14T09:54:07.824Z,20.80
2017-07-14T09:56:35.487Z,20.80
2017-07-14T09:59:03.049Z,21.70
2017-07-14T10:01:30.655Z,22.20
2017-07-14T10:03:58.211Z,22.90
2017-07-14T10:06:25.771Z,23.40
2017-07-14T10:08:53.434Z,22.80
2017-07-14T10:11:20.989Z,22.60
2017-07-14T10:13:48.644Z,22.50
2017-07-14T10:16:16.358Z,22.80
2017-07-14T10:18:43.905Z,24.00
2017-07-14T10:21:11.519Z,24.50
2017-07-14T10:23:39.069Z,24.90
2017-07-14T10:26:06.651Z,24.30
2017-07-14T10:28:34.195Z,24.70
2017-07-14T10:31:01.824Z,24.20
2017-07-14T10:33:29.406Z,24.20
2017-07-14T10:35:56.948Z,23.50
2017-07-14T10:38:24.604Z,23.80
2017-07-14T10:40:52.157Z,23.90
2017-07-14T10:43:19.700Z,23.00
2017-07-14T10:45:47.353Z,22.40
2017-07-14T10:48:15.053Z,22.40
2017-07-14T10:50:42.697Z,22.30
2017-07-14T10:53:10.270Z,23.20
2017-07-14T10:55:37.822Z,23.70
2017-07-14T10:58:05.373Z,24.00
2017-07-14T11:00:32.964Z,23.60
2017-07-14T11:03:00.516Z,23.20
2017-07-14T11:05:28.110Z,24.30
2017-07-14T11:07:56.426Z,23.40
2017-07-14T11:10:24.041Z,23.40
2017-07-14T11:12:52.540Z,23.60
2017-07-14T11:15:20.114Z,23.60
2017-07-14T11:17:47.727Z,23.70
2017-07-14T11:20:15.400Z,23.20
2017-07-14T11:22:43.793Z,22.60
2017-07-14T11:25:11.585Z,22.60
2017-07-14T11:27:39.145Z,23.00
2017-07-14T11:30:06.740Z,23.30
2017-07-14T11:32:34.291Z,23.70
2017-07-14T11:35:01.885Z,24.30
2017-07-14T11:37:30.241Z,24.10
2017-07-14T11:39:57.937Z,24.10
2017-07-14T11:42:25.507Z,23.00
2017-07-14T11:44:53.262Z,23.40
2017-07-14T11:47:20.822Z,24.40
2017-07-14T11:49:48.380Z,24.10
2017-07-14T11:52:16.084Z,24.20
2017-07-14T11:54:43.640Z,24.60
2017-07-14T11:57:11.236Z,23.90
2017-07-14T11:59:39.630Z,23.60
2017-07-14T12:02:07.233Z,23.60
2017-07-14T12:04:34.797Z,23.20
2017-07-14T12:07:02.410Z,23.10
2017-07-14T12:09:30.014Z,22.80
2017-07-14T12:11:57.744Z,23.20
2017-07-14T12:14:25.404Z,23.00
2017-07-14T12:16:52.993Z,23.40
2017-07-14T12:19:20.689Z,23.50
2017-07-14T12:21:49.059Z,23.70
2017-07-14T12:24:17.385Z,24.30
2017-07-14T12:26:44.972Z,24.30
2017-07-14T12:29:12.514Z,24.60
2017-07-14T12:31:40.064Z,25.00
2017-07-14T12:34:07.730Z,24.70
2017-07-14T12:36:35.284Z,25.00
2017-07-14T12:39:02.831Z,24.50
2017-07-14T12:41:30.423Z,23.90
2017-07-14T12:43:57.986Z,23.80
2017-07-14T12:46:25.570Z,23.80
2017-07-14T12:48:53.882Z,23.80
2017-07-14T12:51:21.434Z,23.80
2017-07-14T12:53:49.006Z,23.40
2017-07-14T12:56:16.593Z,23.20
2017-07-14T12:58:44.155Z,23.50
2017-07-14T13:01:11.739Z,23.40
2017-07-14T13:03:40.066Z,22.90
2017-07-14T13:06:07.645Z,22.90
2017-07-14T13:08:35.192Z,22.90
2017-07-14T13:11:02.850Z,22.90
2017-07-14T13:13:30.390Z,23.10
2017-07-14T13:15:57.974Z,23.20
2017-07-14T13:18:25.515Z,23.50
2017-07-14T13:20:53.110Z,24.10
2017-07-14T13:23:21.445Z,24.30
2017-07-14T13:25:49.066Z,24.30
2017-07-14T13:28:17.380Z,23.90
2017-07-14T13:30:44.993Z,23.90
2017-07-14T13:33:13.316Z,24.00
2017-07-14T13:35:40.860Z,24.00
2017-07-14T13:38:08.432Z,24.00
2017-07-14T13:40:35.973Z,23.90
2017-07-14T13:43:03.561Z,23.90
2017-07-14T13:45:31.116Z,23.50
2017-07-14T13:47:58.671Z,23.30
2017-07-14T13:50:26.258Z,23.00
2017-07-14T13:52:53.809Z,22.70
2017-07-14T13:55:21.366Z,23.00
2017-07-14T13:57:48.946Z,23.50
2017-07-14T14:00:17.309Z,23.60
2017-07-14T14:02:44.935Z,23.60
2017-07-14T14:05:12.561Z,23.70
2017-07-14T14:07:40.186Z,23.90
2017-07-14T14:10:07.747Z,24.20
2017-07-14T14:12:36.062Z,24.20
2017-07-14T14:15:03.818Z,24.20
2017-07-14T14:17:31.401Z,24.40
2017-07-14T14:19:59.126Z,24.50
2017-07-14T14:22:26.686Z,24.60
2017-07-14T14:24:54.291Z,24.60
2017-07-14T14:27:21.854Z,24.60
2017-07-14T14:29:49.456Z,24.60
2017-07-14T14:32:17.791Z,24.50
2017-07-14T14:34:45.423Z,24.40
2017-07-14T14:37:13.188Z,24.30
2017-07-14T14:39:40.781Z,24.40
2017-07-14T14:42:08.423Z,24.80
2017-07-14T14:44:35.971Z,24.50
2017-07-14T14:47:03.565Z,24.40
2017-07-14T14:49:31.139Z,24.00
2017-07-14T14:51:59.463Z,23.20
2017-07-14T14:54:27.057Z,23.20
2017-07-14T14:56:54.637Z,22.70
2017-07-14T14:59:22.949Z,22.00
2017-07-14T15:01:50.487Z,22.00
2017-07-14T15:04:18.095Z,21.70
2017-07-14T15:06:45.638Z,21.40
2017-07-14T15:09:13.233Z,21.50
2017-07-14T15:11:40.779Z,21.30
2017-07-14T15:14:08.324Z,21.50
2017-07-14T15:16:35.904Z,21.30
2017-07-14T15:19:03.449Z,21.50
2017-07-14T15:21:31.028Z,21.30
2017-07-14T15:23:59.343Z,22.50
2017-07-14T15:26:26.914Z,22.40
2017-07-14T15:28:54.493Z,22.50
2017-07-14T15:31:22.209Z,22.50
2017-07-14T15:33:49.772Z,22.20
2017-07-14T15:36:17.394Z,22.30
2017-07-14T15:38:44.981Z,22.10
2017-07-14T15:41:12.530Z,22.50
2017-07-14T15:43:40.903Z,22.80
2017-07-14T15:46:09.415Z,22.80
2017-07-14T15:48:36.976Z,22.80
2017-07-14T15:51:04.558Z,23.10
2017-07-14T15:53:32.093Z,23.30
2017-07-14T15:55:59.644Z,23.30
2017-07-14T15:58:27.229Z,23.00
2017-07-14T16:00:54.797Z,22.70
2017-07-14T16:03:22.365Z,22.40
2017-07-14T16:05:49.927Z,22.60
2017-07-14T16:08:17.521Z,22.70
2017-07-14T16:10:45.062Z,22.70
2017-07-14T16:13:13.428Z,22.90
2017-07-14T16:15:40.978Z,22.90
2017-07-14T16:18:08.528Z,22.90
2017-07-14T16:20:36.134Z,22.90
2017-07-14T16:23:03.693Z,22.70
2017-07-14T16:25:31.371Z,22.80
2017-07-14T16:27:58.921Z,22.70
2017-07-14T16:30:26.472Z,22.60
2017-07-14T16:32:54.047Z,22.80
2017-07-14T16:35:21.662Z,22.80
2017-07-14T16:37:50.105Z,22.50
2017-07-14T16:40:17.681Z,22.50
2017-07-14T16:42:46.118Z,22.80
2017-07-14T16:45:13.748Z,22.90
2017-07-14T16:47:42.066Z,23.20
2017-07-14T16:50:09.625Z,23.10
2017-07-14T16:52:37.218Z,23.30
2017-07-14T16:55:04.787Z,23.20
2017-07-14T16:57:33.201Z,23.00
2017-07-14T17:00:00.793Z,23.00
2017-07-14T17:02:28.348Z,22.90
2017-07-14T17:04:55.937Z,22.70
2017-07-14T17:07:24.286Z,22.60
2017-07-14T17:09:51.839Z,22.60
2017-07-14T17:12:19.447Z,22.60
2017-07-14T17:14:47.759Z,22.50
2017-07-14T17:17:15.344Z,22.50
2017-07-14T17:19:42.928Z,22.40
2017-07-14T17:22:11.258Z,22.30
2017-07-14T17:24:38.821Z,22.30
2017-07-14T17:27:06.410Z,22.20
2017-07-14T17:29:33.956Z,22.30
2017-07-14T17:32:01.514Z,22.20
2017-07-14T17:34:29.098Z,22.20
2017-07-14T17:36:57.459Z,22.20
2017-07-14T17:39:25.024Z,22.10
2017-07-14T17:41:52.575Z,22.20
2017-07-14T17:44:20.159Z,22.10
2017-07-14T17:46:48.491Z,21.90
2017-07-14T17:49:16.098Z,21.90
2017-07-14T17:51:43.652Z,21.80
2017-07-14T17:54:11.204Z,21.60
2017-07-14T17:56:39.698Z,21.50
2017-07-14T17:59:07.375Z,21.50
2017-07-14T18:01:34.974Z,21.50
2017-07-14T18:04:02.567Z,21.50
2017-07-14T18:06:30.902Z,21.80
2017-07-14T18:08:58.706Z,21.80
2017-07-14T18:11:27.206Z,22.10
2017-07-14T18:13:54.804Z,22.10
2017-07-14T18:16:22.400Z,22.00
2017-07-14T18:18:50.735Z,21.80
2017-07-14T18:21:18.278Z,21.70
2017-07-14T18:23:45.860Z,21.70
2017-07-14T18:26:13.421Z,21.70
2017-07-14T18:28:40.987Z,21.70
2017-07-14T18:31:08.572Z,21.60
2017-07-14T18:33:36.888Z,21.20
2017-07-14T18:36:04.476Z,21.20
2017-07-14T18:38:32.021Z,21.00
2017-07-14T18:40:59.615Z,20.80
2017-07-14T18:43:27.954Z,20.50
2017-07-14T18:45:55.514Z,20.50
2017-07-14T18:48:23.109Z,20.30
2017-07-14T18:50:51.464Z,20.10
2017-07-14T18:53:19.154Z,20.10
2017-07-14T18:55:47.488Z,20.10
2017-07-14T18:58:15.076Z,20.10
2017-07-14T19:00:43.404Z,20.10
2017-07-14T19:03:10.982Z,20.10
2017-07-14T19:05:38.535Z,20.00
2017-07-14T19:08:06.082Z,20.00
2017-07-14T19:10:33.678Z,19.80
2017-07-14T19:13:01.230Z,19.60
2017-07-14T19:15:28.786Z,19.60
2017-07-14T19:17:56.390Z,19.90
2017-07-14T19:20:23.932Z,19.80
2017-07-14T19:22:52.336Z,19.70
2017-07-14T19:25:19.884Z,19.70
2017-07-14T19:27:47.441Z,19.60
2017-07-14T19:30:15.101Z,19.60
2017-07-14T19:32:42.650Z,19.70
2017-07-14T19:35:10.248Z,19.50
2017-07-14T19:37:37.827Z,19.60
2017-07-14T19:40:05.373Z,19.50
2017-07-14T19:42:32.945Z,19.50
2017-07-14T19:45:00.524Z,19.50
2017-07-14T19:47:28.850Z,19.40
2017-07-14T19:49:56.440Z,19.30
2017-07-14T19:52:23.994Z,19.30
2017-07-14T19:54:51.581Z,19.30
2017-07-14T19:57:19.980Z,19.40
2017-07-14T19:59:47.556Z,19.30
2017-07-14T20:02:15.106Z,19.30
2017-07-14T20:04:42.807Z,19.30
2017-07-14T20:07:10.524Z,19.30
2017-07-14T20:09:38.090Z,19.20
2017-07-14T20:12:05.688Z,19.20
2017-07-14T20:14:33.242Z,19.30
2017-07-14T20:17:00.805Z,19.40
2017-07-14T20:19:28.385Z,19.40
2017-07-14T20:21:56.715Z,19.50
2017-07-14T20:24:24.303Z,19.50
2017-07-14T20:26:51.852Z,19.50
2017-07-14T20:29:19.401Z,19.50
2017-07-14T20:31:46.982Z,19.50
2017-07-14T20:34:14.580Z,19.50
2017-07-14T20:36:42.166Z,19.50
2017-07-14T20:39:09.716Z,19.40
2017-07-14T20:41:37.259Z,19.40
2017-07-14T20:44:04.829Z,19.40
2017-07-14T20:46:32.392Z,19.40
2017-07-14T20:48:59.967Z,19.40
2017-07-14T20:51:27.519Z,19.40
2017-07-14T20:53:55.103Z,19.40
2017-07-14T20:56:22.665Z,19.50
2017-07-14T20:58:50.242Z,19.30
2017-07-14T21:01:18.571Z,19.00
2017-07-14T21:03:46.148Z,19.00
2017-07-14T21:06:13.692Z,19.00
2017-07-14T21:08:41.281Z,19.00
2017-07-14T21:11:09.746Z,19.00
2017-07-14T21:13:37.322Z,19.00
2017-07-14T21:16:05.636Z,18.80
2017-07-14T21:18:33.225Z,18.80
2017-07-14T21:21:00.769Z,18.90
2017-07-14T21:23:28.332Z,18.80
2017-07-14T21:25:55.919Z,18.70
2017-07-14T21:28:23.476Z,18.70
2017-07-14T21:30:51.055Z,18.70
2017-07-14T21:33:19.372Z,18.50
2017-07-14T21:35:46.964Z,18.50
2017-07-14T21:38:14.517Z,18.60
2017-07-14T21:40:42.077Z,18.50
2017-07-14T21:43:09.680Z,18.50
2017-07-14T21:45:38.018Z,18.50
2017-07-14T21:48:05.602Z,18.50
2017-07-14T21:50:33.911Z,18.40
2017-07-14T21:53:01.489Z,18.40
2017-07-14T21:55:29.034Z,18.30
2017-07-14T21:57:56.627Z,18.30
2017-07-14T22:00:24.256Z,18.30
2017-07-14T22:02:51.791Z,18.20
2017-07-14T22:05:19.373Z,18.20
2017-07-14T22:07:46.924Z,18.20
2017-07-14T22:10:14.461Z,18.10
2017-07-14T22:12:42.043Z,18.10
2017-07-14T22:15:09.597Z,18.00
2017-07-14T22:17:37.188Z,17.90
2017-07-14T22:20:04.733Z,17.90
2017-07-14T22:22:32.281Z,17.80
2017-07-14T22:24:59.872Z,17.60
2017-07-14T22:27:27.428Z,17.50
2017-07-14T22:29:55.009Z,17.20
2017-07-14T22:32:23.495Z,16.60
2017-07-14T22:34:51.051Z,16.60
2017-07-14T22:37:18.782Z,16.50
2017-07-14T22:39:46.358Z,16.40
2017-07-14T22:42:14.709Z,16.30
2017-07-14T22:44:42.258Z,16.20
2017-07-14T22:47:09.972Z,16.30
2017-07-14T22:49:37.518Z,16.20
2017-07-14T22:52:05.211Z,16.10
2017-07-14T22:54:32.784Z,16.20
2017-07-14T22:57:00.356Z,16.10
2017-07-14T22:59:28.121Z,16.10
2017-07-14T23:01:55.665Z,15.90
2017-07-14T23:04:23.258Z,15.90
2017-07-14T23:06:51.598Z,15.80
2017-07-14T23:09:19.148Z,15.80
2017-07-14T23:11:46.779Z,15.80
2017-07-14T23:14:14.367Z,15.70
2017-07-14T23:16:41.920Z,15.80
2017-07-14T23:19:09.529Z,15.80
2017-07-14T23:21:38.035Z,15.80
2017-07-14T23:24:05.617Z,15.80
2017-07-14T23:26:33.197Z,15.80
2017-07-14T23:29:00.756Z,15.70
2017-07-14T23:31:28.318Z,15.60
2017-07-14T23:33:56.088Z,15.60
2017-07-14T23:36:24.015Z,15.60
2017-07-14T23:38:51.612Z,15.60
2017-07-14T23:41:19.168Z,15.50
2017-07-14T23:43:46.711Z,15.40
2017-07-14T23:46:14.297Z,15.40
2017-07-14T23:48:42.014Z,15.30
2017-07-14T23:51:09.568Z,15.20
2017-07-14T23:53:37.149Z,15.20
2017-07-14T23:56:04.707Z,15.10
2017-07-14T23:58:32.347Z,15.10
